createdAt,value
2019-03-20T00:02:17.749Z,102843.75
2019-03-20T00:04:52.898Z,102840.69
2019-03-20T00:07:23.834Z,102851.94
2019-03-20T00:09:54.763Z,102853.66
2019-03-20T00:12:25.736Z,102854.55
2019-03-20T00:14:56.628Z,102855.43
2019-03-20T00:17:27.763Z,102859.80
2019-03-20T00:20:00.903Z,102858.49
2019-03-20T00:22:31.818Z,102851.98
2019-03-20T00:25:03.133Z,102847.20
2019-03-20T00:27:34.282Z,102851.56
2019-03-20T00:30:10.884Z,102847.20
2019-03-20T00:32:45.261Z,102843.72
2019-03-20T00:35:16.210Z,102841.98
2019-03-20T00:37:47.128Z,102858.03
2019-03-20T00:40:18.920Z,102845.02
2019-03-20T00:42:49.866Z,102845.89
2019-03-20T00:45:21.664Z,102865.00
2019-03-20T00:47:52.597Z,102865.00
2019-03-20T00:50:23.534Z,102858.92
2019-03-20T00:52:54.468Z,102858.92
2019-03-20T00:55:25.390Z,102872.41
2019-03-20T00:57:57.992Z,102872.41
2019-03-20T01:00:28.886Z,102874.16
2019-03-20T01:02:59.827Z,102873.75
2019-03-20T01:05:30.722Z,102859.84
2019-03-20T01:08:18.427Z,102859.84
2019-03-20T01:10:54.130Z,102882.86
2019-03-20T01:13:26.089Z,102889.36
2019-03-20T01:15:57.778Z,102879.79
2019-03-20T01:18:29.030Z,102884.11
2019-03-20T01:20:59.969Z,102888.44
2019-03-20T01:23:30.953Z,102881.92
2019-03-20T01:26:01.960Z,102878.86
2019-03-20T01:28:33.062Z,102879.73
2019-03-20T01:31:07.968Z,102886.67
2019-03-20T01:33:38.920Z,102885.78
2019-03-20T01:36:09.872Z,102893.16
2019-03-20T01:38:40.838Z,102893.16
2019-03-20T01:41:11.894Z,102891.86
2019-03-20T01:43:42.938Z,102888.33
2019-03-20T01:46:13.886Z,102886.60
2019-03-20T01:48:44.856Z,102889.62
2019-03-20T01:51:20.214Z,102889.58
2019-03-20T01:53:51.934Z,102881.30
2019-03-20T01:56:22.862Z,102881.30
2019-03-20T01:58:54.695Z,102883.06
2019-03-20T02:01:25.644Z,102883.06
2019-03-20T02:03:56.633Z,102886.52
2019-03-20T02:06:27.672Z,102886.52
2019-03-20T02:08:58.614Z,102883.02
2019-03-20T02:11:29.652Z,102887.37
2019-03-20T02:14:00.648Z,102880.83
2019-03-20T02:16:31.584Z,102880.83
2019-03-20T02:19:02.663Z,102882.54
2019-03-20T02:21:36.329Z,102885.56
2019-03-20T02:24:07.401Z,102882.49
2019-03-20T02:26:38.419Z,102891.17
2019-03-20T02:29:10.308Z,102891.17
2019-03-20T02:31:41.321Z,102888.11
2019-03-20T02:34:12.311Z,102890.23
2019-03-20T02:36:43.344Z,102897.63
2019-03-20T02:39:14.289Z,102889.77
2019-03-20T02:41:45.443Z,102890.17
2019-03-20T02:44:16.575Z,102890.17
2019-03-20T02:46:47.634Z,102889.76
2019-03-20T02:49:18.747Z,102888.45
2019-03-20T02:51:49.811Z,102890.16
2019-03-20T02:54:20.789Z,102890.16
2019-03-20T02:56:51.788Z,102894.86
2019-03-20T02:59:23.746Z,102894.86
2019-03-20T03:01:54.732Z,102906.20
2019-03-20T03:04:25.838Z,102912.28
2019-03-20T03:06:56.774Z,102909.69
2019-03-20T03:09:27.878Z,102905.78
2019-03-20T03:11:59.726Z,102909.68
2019-03-20T03:14:33.425Z,102901.78
2019-03-20T03:17:04.363Z,102922.22
2019-03-20T03:19:35.291Z,102922.22
2019-03-20T03:22:06.220Z,102932.15
2019-03-20T03:24:37.200Z,102934.70
2019-03-20T03:27:08.023Z,102931.68
2019-03-20T03:29:40.827Z,102931.20
2019-03-20T03:32:13.702Z,102929.44
2019-03-20T03:34:44.654Z,102932.03
2019-03-20T03:37:15.594Z,102934.16
2019-03-20T03:39:46.548Z,102935.00
2019-03-20T03:42:17.452Z,102928.91
2019-03-20T03:44:49.373Z,102930.62
2019-03-20T03:47:20.516Z,102941.48
2019-03-20T03:49:51.604Z,102937.10
2019-03-20T03:52:24.337Z,102935.38
2019-03-20T03:54:58.604Z,102934.08
2019-03-20T03:57:32.494Z,102944.91
2019-03-20T04:00:04.937Z,102940.59
2019-03-20T04:02:37.775Z,102944.08
2019-03-20T04:05:11.716Z,102936.22
2019-03-20T04:07:45.380Z,102941.42
2019-03-20T04:10:19.999Z,102935.75
2019-03-20T04:12:51.104Z,102934.45
2019-03-20T04:15:22.958Z,102926.63
2019-03-20T04:17:54.024Z,102928.75
2019-03-20T04:20:25.125Z,102929.17
2019-03-20T04:22:56.128Z,102934.32
2019-03-20T04:25:27.170Z,102927.81
2019-03-20T04:27:59.419Z,102936.03
2019-03-20T04:30:30.431Z,102932.11
2019-03-20T04:33:02.877Z,102939.50
2019-03-20T04:35:33.898Z,102932.52
2019-03-20T04:38:04.978Z,102937.67
2019-03-20T04:40:36.029Z,102936.38
2019-03-20T04:43:07.094Z,102938.56
2019-03-20T04:45:38.050Z,102936.89
2019-03-20T04:48:08.951Z,102943.42
2019-03-20T04:50:39.799Z,102949.98
2019-03-20T04:53:10.708Z,102946.55
2019-03-20T04:55:41.642Z,102957.85
2019-03-20T04:58:12.545Z,102952.28
2019-03-20T05:00:45.108Z,102961.45
2019-03-20T05:03:16.075Z,102965.86
2019-03-20T05:05:47.001Z,102973.78
2019-03-20T05:08:17.894Z,102975.62
2019-03-20T05:10:48.897Z,102980.48
2019-03-20T05:13:19.811Z,102974.57
2019-03-20T05:15:51.131Z,102974.57
2019-03-20T05:18:22.040Z,102982.56
2019-03-20T05:20:52.968Z,102978.31
2019-03-20T05:23:23.868Z,102978.00
2019-03-20T05:25:54.804Z,102982.49
2019-03-20T05:28:25.690Z,102985.73
2019-03-20T05:30:57.571Z,102990.34
2019-03-20T05:33:28.465Z,102988.86
2019-03-20T05:35:59.399Z,102986.61
2019-03-20T05:38:30.344Z,102991.25
2019-03-20T05:41:01.333Z,102986.65
2019-03-20T05:43:32.253Z,102989.58
2019-03-20T05:46:04.073Z,102989.58
2019-03-20T05:48:34.979Z,102987.48
2019-03-20T05:51:05.917Z,102995.38
2019-03-20T05:53:36.823Z,103000.19
2019-03-20T05:56:09.488Z,102992.31
2019-03-20T05:58:40.381Z,102997.98
2019-03-20T06:01:11.319Z,102999.25
2019-03-20T06:03:42.307Z,102997.44
2019-03-20T06:06:13.325Z,103005.16
2019-03-20T06:08:44.230Z,102999.70
2019-03-20T06:11:15.161Z,102996.48
2019-03-20T06:13:46.066Z,102996.27
2019-03-20T06:16:17.944Z,102993.86
2019-03-20T06:18:48.859Z,102994.91
2019-03-20T06:21:19.789Z,102994.16
2019-03-20T06:23:50.692Z,102994.77
2019-03-20T06:26:21.611Z,103005.55
2019-03-20T06:28:52.518Z,102995.20
2019-03-20T06:31:24.262Z,103003.97
2019-03-20T06:33:55.161Z,103002.28
2019-03-20T06:36:28.259Z,103006.23
2019-03-20T06:38:58.694Z,103010.13
2019-03-20T06:41:29.638Z,103010.47
2019-03-20T06:44:00.541Z,103010.09
2019-03-20T06:46:32.374Z,103008.14
2019-03-20T06:49:03.339Z,103010.91
2019-03-20T06:51:34.287Z,103006.78
2019-03-20T06:54:05.198Z,103007.09
2019-03-20T06:56:36.127Z,103011.98
2019-03-20T06:59:24.257Z,103005.34
2019-03-20T07:01:55.730Z,103013.50
2019-03-20T07:04:38.305Z,103017.29
2019-03-20T07:07:12.203Z,103016.67
2019-03-20T07:09:55.067Z,103014.23
2019-03-20T07:12:25.995Z,103025.48
2019-03-20T07:14:57.696Z,103026.05
2019-03-20T07:17:28.649Z,103030.64
2019-03-20T07:19:59.541Z,103035.56
2019-03-20T07:22:30.537Z,103029.14
2019-03-20T07:25:01.450Z,103037.25
2019-03-20T07:27:32.386Z,103036.54
2019-03-20T07:30:03.777Z,103024.59
2019-03-20T07:32:35.515Z,103025.55
2019-03-20T07:35:06.412Z,103024.42
2019-03-20T07:37:37.342Z,103028.86
2019-03-20T07:40:09.439Z,103023.39
2019-03-20T07:42:41.273Z,103018.61
2019-03-20T07:45:12.247Z,103019.51
2019-03-20T07:47:44.162Z,103015.52
2019-03-20T07:50:17.846Z,103015.36
2019-03-20T07:52:49.536Z,103005.75
2019-03-20T07:55:20.441Z,103009.39
2019-03-20T07:57:51.368Z,103012.16
2019-03-20T08:00:22.362Z,103019.72
2019-03-20T08:02:53.466Z,103016.88
2019-03-20T08:05:29.172Z,103017.71
2019-03-20T08:08:06.824Z,103006.78
2019-03-20T08:10:29.646Z,103015.67
2019-03-20T08:13:00.563Z,103014.52
2019-03-20T08:15:32.534Z,103012.00
2019-03-20T08:18:03.489Z,103010.94
2019-03-20T08:20:34.362Z,103016.11
2019-03-20T08:23:05.314Z,103013.88
2019-03-20T08:25:36.212Z,103011.73
2019-03-20T08:28:07.135Z,103005.03
2019-03-20T08:30:38.027Z,103005.23
2019-03-20T08:33:08.977Z,102999.84
2019-03-20T08:35:39.877Z,102996.47
2019-03-20T08:38:18.258Z,103006.20
2019-03-20T08:40:43.403Z,103003.44
2019-03-20T08:43:14.318Z,103007.43
2019-03-20T08:45:45.219Z,103004.63
2019-03-20T08:48:16.955Z,103014.24
2019-03-20T08:50:47.858Z,103009.33
2019-03-20T08:53:18.777Z,102992.28
2019-03-20T08:55:49.674Z,102992.85
2019-03-20T08:58:20.599Z,102994.53
2019-03-20T09:00:51.488Z,102998.88
2019-03-20T09:03:23.298Z,102998.73
2019-03-20T09:05:54.202Z,102997.60
2019-03-20T09:08:29.602Z,103004.34
2019-03-20T09:10:57.728Z,103000.37
2019-03-20T09:13:28.711Z,102996.84
2019-03-20T09:16:00.386Z,102996.33
2019-03-20T09:18:31.328Z,102991.18
2019-03-20T09:21:02.228Z,102988.67
2019-03-20T09:23:33.154Z,102986.41
2019-03-20T09:26:04.049Z,102983.55
2019-03-20T09:28:34.974Z,102984.31
2019-03-20T09:31:05.880Z,102977.64
2019-03-20T09:33:37.748Z,102980.80
2019-03-20T09:36:08.647Z,102962.17
2019-03-20T09:38:43.725Z,102966.34
2019-03-20T09:41:12.160Z,102965.51
2019-03-20T09:43:43.086Z,102956.43
2019-03-20T09:46:13.982Z,102954.18
2019-03-20T09:48:45.947Z,102957.97
2019-03-20T09:51:16.862Z,102960.42
2019-03-20T09:53:47.834Z,102963.38
2019-03-20T09:56:18.762Z,102962.19
2019-03-20T09:58:49.772Z,102954.68
2019-03-20T10:01:20.699Z,102952.09
2019-03-20T10:03:51.671Z,102943.69
2019-03-20T10:06:22.573Z,102945.92
2019-03-20T10:08:54.410Z,102944.83
2019-03-20T10:11:25.574Z,102936.37
2019-03-20T10:13:56.492Z,102938.45
2019-03-20T10:16:28.236Z,102933.70
2019-03-20T10:18:59.991Z,102927.37
2019-03-20T10:21:30.880Z,102926.55
2019-03-20T10:24:05.251Z,102923.19
2019-03-20T10:26:36.120Z,102932.68
2019-03-20T10:29:07.039Z,102928.20
2019-03-20T10:31:37.938Z,102934.94
2019-03-20T10:34:09.032Z,102928.62
2019-03-20T10:36:39.930Z,102930.03
2019-03-20T10:39:10.913Z,102937.98
2019-03-20T10:41:41.828Z,102926.14
2019-03-20T10:44:12.748Z,102932.23
2019-03-20T10:46:43.658Z,102933.48
2019-03-20T10:49:15.473Z,102930.47
2019-03-20T10:51:46.428Z,102927.67
2019-03-20T10:54:17.352Z,102921.56
2019-03-20T10:56:48.250Z,102921.87
2019-03-20T10:59:19.179Z,102911.56
2019-03-20T11:01:50.084Z,102925.67
2019-03-20T11:04:21.840Z,102905.76
2019-03-20T11:06:52.735Z,102928.37
2019-03-20T11:09:23.734Z,102932.44
2019-03-20T11:11:54.637Z,102926.86
2019-03-20T11:14:25.594Z,102920.02
2019-03-20T11:16:58.084Z,102910.55
2019-03-20T11:19:29.881Z,102902.58
2019-03-20T11:22:00.734Z,102904.66
2019-03-20T11:24:32.946Z,102902.80
2019-03-20T11:27:03.831Z,102901.03
2019-03-20T11:29:34.772Z,102906.02
2019-03-20T11:32:05.642Z,102895.88
2019-03-20T11:34:36.678Z,102891.45
2019-03-20T11:37:07.574Z,102891.68
2019-03-20T11:39:38.495Z,102899.62
2019-03-20T11:42:09.397Z,102900.61
2019-03-20T11:44:40.335Z,102900.81
2019-03-20T11:47:11.216Z,102891.91
2019-03-20T11:49:43.039Z,102892.30
2019-03-20T11:52:13.942Z,102891.20
2019-03-20T11:54:44.886Z,102882.80
2019-03-20T11:57:15.776Z,102867.81
2019-03-20T11:59:46.698Z,102870.08
2019-03-20T12:02:27.703Z,102867.19
2019-03-20T12:04:50.294Z,102875.13
2019-03-20T12:07:21.228Z,102878.47
2019-03-20T12:09:52.157Z,102875.98
2019-03-20T12:12:23.052Z,102861.84
2019-03-20T12:14:54.002Z,102852.61
2019-03-20T12:17:25.760Z,102865.15
2019-03-20T12:19:57.594Z,102855.09
2019-03-20T12:22:28.501Z,102847.92
2019-03-20T12:24:59.439Z,102852.90
2019-03-20T12:27:30.428Z,102850.66
2019-03-20T12:30:01.364Z,102849.59
2019-03-20T12:32:32.254Z,102838.62
2019-03-20T12:35:04.034Z,102847.91
2019-03-20T12:37:34.940Z,102827.50
2019-03-20T12:40:20.288Z,102832.80
2019-03-20T12:42:51.185Z,102831.83
2019-03-20T12:45:24.755Z,102828.64
2019-03-20T12:47:55.652Z,102838.31
2019-03-20T12:50:27.594Z,102836.36
2019-03-20T12:53:01.370Z,102825.55
2019-03-20T12:55:31.401Z,102828.38
2019-03-20T12:58:02.353Z,102822.41
2019-03-20T13:00:33.286Z,102832.50
2019-03-20T13:03:04.216Z,102837.38
2019-03-20T13:05:35.995Z,102839.71
2019-03-20T13:08:06.893Z,102844.52
2019-03-20T13:10:37.827Z,102843.33
2019-03-20T13:13:08.803Z,102836.58
2019-03-20T13:15:39.717Z,102825.33
2019-03-20T13:18:11.390Z,102808.20
2019-03-20T13:20:43.268Z,102807.69
2019-03-20T13:23:22.713Z,102805.35
2019-03-20T13:25:53.651Z,102804.48
2019-03-20T13:28:24.561Z,102801.69
2019-03-20T13:31:10.608Z,102801.59
2019-03-20T13:33:41.507Z,102801.38
2019-03-20T13:36:13.277Z,102794.70
2019-03-20T13:38:44.176Z,102795.12
2019-03-20T13:41:15.113Z,102807.61
2019-03-20T13:43:46.014Z,102793.95
2019-03-20T13:46:16.946Z,102804.03
2019-03-20T13:48:47.858Z,102806.67
2019-03-20T13:51:19.626Z,102802.09
2019-03-20T13:53:50.530Z,102796.89
2019-03-20T13:56:21.468Z,102785.55
2019-03-20T13:58:52.477Z,102782.94
2019-03-20T14:01:23.372Z,102791.00
2019-03-20T14:03:54.269Z,102787.33
2019-03-20T14:06:26.068Z,102788.05
2019-03-20T14:08:56.963Z,102790.12
2019-03-20T14:11:28.874Z,102796.19
2019-03-20T14:13:59.787Z,102794.45
2019-03-20T14:16:30.721Z,102796.64
2019-03-20T14:19:03.375Z,102777.95
2019-03-20T14:21:35.207Z,102787.42
2019-03-20T14:24:06.112Z,102783.50
2019-03-20T14:26:37.030Z,102790.34
2019-03-20T14:29:07.933Z,102787.33
2019-03-20T14:31:38.883Z,102788.56
2019-03-20T14:34:09.777Z,102779.32
2019-03-20T14:36:41.550Z,102779.80
2019-03-20T14:39:12.526Z,102765.89
2019-03-20T14:41:43.529Z,102737.08
2019-03-20T14:44:14.446Z,102724.39
2019-03-20T14:46:45.387Z,102736.70
2019-03-20T14:49:16.321Z,102751.08
2019-03-20T14:51:48.193Z,102755.50
2019-03-20T14:54:19.104Z,102764.05
2019-03-20T14:56:50.039Z,102749.13
2019-03-20T14:59:20.957Z,102756.98
2019-03-20T15:01:51.893Z,102767.66
2019-03-20T15:04:22.807Z,102758.01
2019-03-20T15:06:53.797Z,102743.03
2019-03-20T15:09:24.772Z,102732.23
2019-03-20T15:11:55.699Z,102749.95
2019-03-20T15:14:26.611Z,102745.26
2019-03-20T15:16:57.623Z,102738.22
2019-03-20T15:19:30.201Z,102737.38
2019-03-20T15:22:02.043Z,102737.56
2019-03-20T15:24:32.949Z,102739.81
2019-03-20T15:27:03.889Z,102752.09
2019-03-20T15:29:34.790Z,102736.81
2019-03-20T15:32:05.791Z,102717.50
2019-03-20T15:34:36.697Z,102726.02
2019-03-20T15:37:08.590Z,102729.92
2019-03-20T15:39:39.505Z,102732.17
2019-03-20T15:42:10.447Z,102738.42
2019-03-20T15:44:41.717Z,102730.12
2019-03-20T15:47:12.592Z,102735.53
2019-03-20T15:49:43.497Z,102731.86
2019-03-20T15:52:15.350Z,102707.35
2019-03-20T15:54:47.079Z,102716.81
2019-03-20T15:57:19.109Z,102723.00
2019-03-20T15:59:50.623Z,102731.07
2019-03-20T16:02:21.627Z,102733.33
2019-03-20T16:04:52.536Z,102732.59
2019-03-20T16:07:24.361Z,102732.17
2019-03-20T16:09:57.805Z,102738.33
2019-03-20T16:12:28.782Z,102730.59
2019-03-20T16:14:59.706Z,102730.23
2019-03-20T16:17:30.636Z,102730.16
2019-03-20T16:20:02.463Z,102720.91
2019-03-20T16:22:35.115Z,102717.22
2019-03-20T16:25:09.333Z,102722.42
2019-03-20T16:27:40.263Z,102728.37
2019-03-20T16:30:14.311Z,102722.02
2019-03-20T16:32:45.227Z,102720.39
2019-03-20T16:35:16.132Z,102708.42
2019-03-20T16:37:48.041Z,102716.93
2019-03-20T16:40:20.857Z,102704.46
2019-03-20T16:42:51.782Z,102708.70
2019-03-20T16:45:38.974Z,102708.17
2019-03-20T16:48:09.901Z,102699.93
2019-03-20T16:50:40.796Z,102714.83
2019-03-20T16:53:12.604Z,102714.53
2019-03-20T16:55:43.573Z,102729.48
2019-03-20T16:58:17.032Z,102725.71
2019-03-20T17:00:47.101Z,102720.16
2019-03-20T17:03:18.039Z,102718.86
2019-03-20T17:05:48.949Z,102716.27
2019-03-20T17:08:20.806Z,102716.34
2019-03-20T17:10:51.813Z,102709.42
2019-03-20T17:13:22.749Z,102723.44
2019-03-20T17:15:53.657Z,102712.06
2019-03-20T17:18:24.679Z,102714.02
2019-03-20T17:20:57.968Z,102725.50
2019-03-20T17:23:30.121Z,102729.59
2019-03-20T17:26:01.033Z,102744.11
2019-03-20T17:28:32.915Z,102743.67
2019-03-20T17:31:03.757Z,102750.15
2019-03-20T17:33:34.702Z,102753.78
2019-03-20T17:36:05.606Z,102749.75
2019-03-20T17:38:36.582Z,102757.67
2019-03-20T17:41:07.492Z,102747.61
2019-03-20T17:43:38.427Z,102746.29
2019-03-20T17:46:09.456Z,102747.74
2019-03-20T17:48:40.384Z,102739.53
2019-03-20T17:51:11.290Z,102734.25
2019-03-20T17:53:43.051Z,102743.78
2019-03-20T17:56:14.029Z,102744.27
2019-03-20T17:58:44.963Z,102747.47
2019-03-20T18:01:15.866Z,102765.17
2019-03-20T18:03:46.794Z,102766.09
2019-03-20T18:06:17.706Z,102769.71
2019-03-20T18:08:49.494Z,102780.42
2019-03-20T18:11:20.391Z,102784.77
2019-03-20T18:13:51.330Z,102794.55
2019-03-20T18:16:22.227Z,102776.53
2019-03-20T18:18:56.137Z,102777.06
2019-03-20T18:21:27.863Z,102781.02
2019-03-20T18:23:59.741Z,102769.27
2019-03-20T18:26:30.709Z,102773.66
2019-03-20T18:29:01.639Z,102769.27
2019-03-20T18:31:32.612Z,102774.16
2019-03-20T18:34:03.915Z,102776.45
2019-03-20T18:36:34.830Z,102776.52
2019-03-20T18:39:08.429Z,102796.81
2019-03-20T18:41:39.595Z,102814.73
2019-03-20T18:44:10.525Z,102825.37
2019-03-20T18:46:41.437Z,102843.82
2019-03-20T18:49:12.440Z,102834.11
2019-03-20T18:51:43.344Z,102838.98
2019-03-20T18:54:15.108Z,102837.67
2019-03-20T18:56:46.014Z,102833.23
2019-03-20T18:59:16.945Z,102825.52
2019-03-20T19:01:47.851Z,102831.58
2019-03-20T19:04:18.782Z,102821.42
2019-03-20T19:06:49.693Z,102820.54
2019-03-20T19:09:21.592Z,102817.91
2019-03-20T19:11:52.556Z,102810.88
2019-03-20T19:14:23.526Z,102816.59
2019-03-20T19:16:54.495Z,102807.86
2019-03-20T19:19:25.424Z,102805.32
2019-03-20T19:21:58.831Z,102808.73
2019-03-20T19:24:32.398Z,102822.34
2019-03-20T19:27:03.308Z,102824.06
2019-03-20T19:29:34.235Z,102816.98
2019-03-20T19:32:05.139Z,102821.03
2019-03-20T19:34:36.071Z,102816.20
2019-03-20T19:37:06.987Z,102818.39
2019-03-20T19:39:38.770Z,102818.79
2019-03-20T19:42:19.547Z,102825.81
2019-03-20T19:44:42.308Z,102836.76
2019-03-20T19:47:13.209Z,102829.72
2019-03-20T19:49:44.162Z,102835.88
2019-03-20T19:52:15.059Z,102831.97
2019-03-20T19:54:46.846Z,102834.55
2019-03-20T19:57:19.363Z,102834.59
2019-03-20T19:59:50.294Z,102829.33
2019-03-20T20:02:21.202Z,102833.77
2019-03-20T20:04:52.199Z,102836.95
2019-03-20T20:07:23.101Z,102835.28
2019-03-20T20:09:54.046Z,102840.95
2019-03-20T20:12:31.252Z,102841.04
2019-03-20T20:14:57.559Z,102859.40
2019-03-20T20:17:28.463Z,102855.01
2019-03-20T20:19:59.378Z,102851.48
2019-03-20T20:22:31.354Z,102828.70
2019-03-20T20:25:03.231Z,102834.36
2019-03-20T20:27:34.126Z,102826.11
2019-03-20T20:30:10.699Z,102822.64
2019-03-20T20:32:41.598Z,102815.07
2019-03-20T20:35:14.215Z,102814.59
2019-03-20T20:37:46.014Z,102830.36
2019-03-20T20:40:31.706Z,102820.79
2019-03-20T20:43:02.606Z,102827.03
2019-03-20T20:45:33.522Z,102835.33
2019-03-20T20:48:04.418Z,102832.26
2019-03-20T20:50:35.351Z,102832.69
2019-03-20T20:53:06.251Z,102835.78
2019-03-20T20:55:37.436Z,102841.52
2019-03-20T20:58:08.340Z,102838.41
2019-03-20T21:00:39.273Z,102851.58
2019-03-20T21:03:10.167Z,102856.91
2019-03-20T21:05:41.099Z,102857.42
2019-03-20T21:08:11.997Z,102856.42
2019-03-20T21:10:42.947Z,102849.44
2019-03-20T21:13:13.854Z,102851.14
2019-03-20T21:15:48.153Z,102854.61
2019-03-20T21:18:47.822Z,102845.48
2019-03-20T21:21:19.051Z,102841.52
2019-03-20T21:24:24.807Z,102838.02
2019-03-20T21:27:08.472Z,102826.16
2019-03-20T21:30:06.435Z,102821.86
2019-03-20T21:32:46.386Z,102825.91
2019-03-20T21:35:53.809Z,102830.83
2019-03-20T21:38:23.443Z,102835.22
2019-03-20T21:41:18.435Z,102834.91
2019-03-20T21:44:11.591Z,102852.04
2019-03-20T21:47:18.949Z,102851.25
2019-03-20T21:49:49.884Z,102868.37
2019-03-20T21:52:20.792Z,102867.18
2019-03-20T21:55:24.462Z,102865.34
2019-03-20T21:58:03.195Z,102857.52
2019-03-20T22:01:00.545Z,102863.67
2019-03-20T22:03:31.448Z,102875.09
2019-03-20T22:06:08.450Z,102883.08
2019-03-20T22:08:39.351Z,102891.45
2019-03-20T22:11:33.531Z,102894.52
2019-03-20T22:14:07.344Z,102880.05
2019-03-20T22:17:04.934Z,102878.69
2019-03-20T22:20:04.320Z,102894.48
2019-03-20T22:22:54.619Z,102899.31
2019-03-20T22:25:31.083Z,102902.42
2019-03-20T22:28:21.275Z,102894.17
2019-03-20T22:30:52.271Z,102903.78
2019-03-20T22:33:59.873Z,102901.19
2019-03-20T22:36:30.962Z,102908.21
2019-03-20T22:39:13.723Z,102902.47
2019-03-20T22:42:05.656Z,102901.59
2019-03-20T22:44:38.280Z,102901.59
2019-03-20T22:47:31.861Z,102899.03
2019-03-20T22:50:14.619Z,102897.32
2019-03-20T22:53:20.102Z,102892.05
2019-03-20T22:55:53.944Z,102898.20
2019-03-20T22:58:32.093Z,102913.16
2019-03-20T23:01:12.679Z,102916.67
2019-03-20T23:03:55.458Z,102912.72
2019-03-20T23:06:28.333Z,102921.94
2019-03-20T23:08:59.226Z,102911.84
2019-03-20T23:11:30.156Z,102903.06
2019-03-20T23:14:01.065Z,102901.67
2019-03-20T23:16:32.010Z,102905.66
2019-03-20T23:19:02.914Z,102917.51
2019-03-20T23:21:33.867Z,102915.84
2019-03-20T23:24:04.787Z,102907.61
2019-03-20T23:26:36.531Z,102910.69
2019-03-20T23:29:07.487Z,102904.98
2019-03-20T23:31:38.407Z,102901.11
2019-03-20T23:34:09.312Z,102889.26
2019-03-20T23:36:40.286Z,102893.28
2019-03-20T23:39:11.193Z,102898.63
2019-03-20T23:41:42.133Z,102902.53
2019-03-20T23:44:13.049Z,102909.12
2019-03-20T23:46:44.080Z,102894.20
2019-03-20T23:49:20.907Z,102896.39
2019-03-20T23:51:52.855Z,102891.13
2019-03-20T23:54:32.687Z,102884.59
2019-03-20T23:57:04.511Z,102887.70
2019-03-20T23:59:37.003Z,102888.14
